Time;durP1;ratioP1;P1;durP2;ratioP2;P2;SDS_P1;SDS_P2;PMS_P1;PMS_P2;Temp;Humidity;BMP_temperature;BMP_pressure;BME280_temperature;BME280_humidity;BME280_pressure;Samples;Min_cycle;Max_cycle;Signal;HPM_P1;HPM_P2
2021/03/04 00:00:47;;;;;;;14.68;9.70;;;;;;;;;;4987544;28;20038;-71
2021/03/04 00:03:13;;;;;;;13.10;9.13;;;;;;;;;;4987820;28;20440;-71
2021/03/04 00:05:38;;;;;;;12.55;8.40;;;;;;;;;;4987937;28;20405;-71
2021/03/04 00:08:04;;;;;;;12.38;9.63;;;;;;;;;;4987510;28;20038;-71
2021/03/04 00:10:30;;;;;;;14.25;9.07;;;;;;;;;;4988086;28;20485;-71
2021/03/04 00:12:55;;;;;;;14.73;10.27;;;;;;;;;;4987855;28;20405;-71
2021/03/04 00:15:22;;;;;;;16.20;10.13;;;;;;;;;;4971500;28;20039;-71
2021/03/04 00:17:48;;;;;;;14.38;9.98;;;;;;;;;;4971488;28;20132;-71
2021/03/04 00:20:21;;;;;;;14.48;10.57;;;;;;;;;;4971380;28;20549;-71
2021/03/04 00:22:46;;;;;;;15.40;10.10;;;;;;;;;;4971393;28;20059;-71
2021/03/04 00:25:12;;;;;;;11.50;9.32;;;;;;;;;;4970347;28;20401;-71
2021/03/04 00:27:38;;;;;;;14.23;10.32;;;;;;;;;;4955512;28;20065;-71
2021/03/04 00:30:08;;;;;;;12.48;9.02;;;;;;;;;;4955130;28;20473;-71
2021/03/04 00:32:33;;;;;;;12.20;9.60;;;;;;;;;;4974574;28;20034;-71
2021/03/04 00:34:58;;;;;;;13.20;9.38;;;;;;;;;;4975410;28;20504;-71
2021/03/04 00:37:24;;;;;;;13.80;9.75;;;;;;;;;;4991561;28;20041;-71
2021/03/04 00:39:50;;;;;;;13.18;9.20;;;;;;;;;;5007889;28;20112;-71
2021/03/04 00:42:15;;;;;;;12.55;8.90;;;;;;;;;;4991997;28;20528;-71
2021/03/04 00:44:41;;;;;;;12.38;8.82;;;;;;;;;;4991400;28;20054;-71
2021/03/04 00:47:06;;;;;;;11.15;9.07;;;;;;;;;;4976271;28;20400;-71
2021/03/04 00:49:31;;;;;;;13.32;10.20;;;;;;;;;;4974978;28;20393;-71
2021/03/04 00:51:57;;;;;;;11.80;9.45;;;;;;;;;;4975327;28;20030;-71
2021/03/04 00:54:22;;;;;;;12.32;9.27;;;;;;;;;;4974915;28;20062;-71
2021/03/04 00:56:48;;;;;;;11.70;9.05;;;;;;;;;;4958988;28;20118;-71
2021/03/04 00:59:13;;;;;;;11.63;8.65;;;;;;;;;;4974651;28;20425;-71
2021/03/04 01:01:39;;;;;;;14.52;9.95;;;;;;;;;;4959166;28;20046;-71
2021/03/04 01:04:04;;;;;;;12.60;9.40;;;;;;;;;;4958734;28;20078;-71
2021/03/04 01:06:30;;;;;;;14.20;8.70;;;;;;;;;;4974623;28;20054;-71
2021/03/04 01:08:55;;;;;;;15.50;10.13;;;;;;;;;;4958559;28;20122;-71
2021/03/04 01:11:21;;;;;;;14.65;9.48;;;;;;;;;;4975022;28;20389;-71
2021/03/04 01:13:47;;;;;;;12.93;8.85;;;;;;;;;;4958665;28;20034;-71
2021/03/04 01:16:12;;;;;;;14.38;9.93;;;;;;;;;;4973962;28;20042;-71
2021/03/04 01:18:38;;;;;;;10.93;8.57;;;;;;;;;;4975737;28;20113;-71
2021/03/04 01:21:03;;;;;;;12.23;9.10;;;;;;;;;;4958676;28;20031;-71
2021/03/04 01:23:29;;;;;;;15.10;9.80;;;;;;;;;;4958593;28;20038;-71
2021/03/04 01:25:55;;;;;;;13.50;9.85;;;;;;;;;;4974633;28;20038;-71
2021/03/04 01:28:20;;;;;;;14.13;10.23;;;;;;;;;;4974283;28;20049;-71
2021/03/04 01:30:45;;;;;;;12.32;9.90;;;;;;;;;;4990424;28;20254;-71
2021/03/04 01:33:11;;;;;;;11.70;9.35;;;;;;;;;;4974337;28;20397;-71
2021/03/04 01:35:36;;;;;;;12.73;9.82;;;;;;;;;;4990970;28;20031;-71
2021/03/04 01:38:02;;;;;;;13.27;10.05;;;;;;;;;;4990223;28;20449;-71
2021/03/04 01:40:27;;;;;;;13.30;8.98;;;;;;;;;;5006921;28;20388;-71
2021/03/04 01:42:53;;;;;;;12.35;10.13;;;;;;;;;;4989053;28;20051;-71
2021/03/04 01:45:18;;;;;;;12.80;9.80;;;;;;;;;;4977746;28;20502;-71
2021/03/04 01:47:48;;;;;;;15.88;10.48;;;;;;;;;;4977395;28;20038;-71
2021/03/04 01:50:14;;;;;;;12.68;10.43;;;;;;;;;;4975907;28;20046;-71
2021/03/04 01:52:39;;;;;;;13.57;9.88;;;;;;;;;;4974086;28;20035;-71
2021/03/04 01:55:05;;;;;;;16.10;11.32;;;;;;;;;;4974264;28;20170;-71
2021/03/04 01:57:31;;;;;;;14.13;10.35;;;;;;;;;;4974062;28;20031;-71
2021/03/04 01:59:56;;;;;;;13.13;10.77;;;;;;;;;;4957661;28;20496;-71
2021/03/04 02:02:22;;;;;;;13.88;9.68;;;;;;;;;;4974334;28;20429;-71
2021/03/04 02:04:48;;;;;;;13.55;9.55;;;;;;;;;;4973828;28;20054;-71
2021/03/04 02:07:28;;;;;;;14.23;9.63;;;;;;;;;;4957987;28;20478;-71
2021/03/04 02:09:58;;;;;;;11.70;9.90;;;;;;;;;;4973438;28;20117;-71
2021/03/04 02:12:38;;;;;;;12.50;9.57;;;;;;;;;;4973858;28;20447;-71
2021/03/04 02:15:05;;;;;;;14.48;9.48;;;;;;;;;;4990524;28;20031;-71
2021/03/04 02:17:32;;;;;;;13.65;9.57;;;;;;;;;;4976854;28;20039;-71
2021/03/04 02:20:05;;;;;;;13.80;10.25;;;;;;;;;;4977232;28;20058;-71
2021/03/04 02:22:40;;;;;;;12.95;9.30;;;;;;;;;;4977174;28;20523;-70
2021/03/04 02:25:13;;;;;;;11.82;9.20;;;;;;;;;;4974612;28;20039;-71
2021/03/04 02:27:38;;;;;;;12.10;9.27;;;;;;;;;;4973719;28;20035;-71
2021/03/04 02:30:24;;;;;;;12.30;9.38;;;;;;;;;;4956772;28;20078;-71
2021/03/04 02:32:52;;;;;;;11.35;8.80;;;;;;;;;;4959614;28;20046;-71
2021/03/04 02:35:30;;;;;;;11.48;9.77;;;;;;;;;;4973475;28;20563;-71
2021/03/04 02:37:58;;;;;;;11.95;9.52;;;;;;;;;;4972765;28;20572;-71
2021/03/04 02:40:24;;;;;;;11.85;9.35;;;;;;;;;;4973210;28;20063;-71
2021/03/04 02:42:50;;;;;;;11.25;9.15;;;;;;;;;;4973293;28;20030;-71
2021/03/04 02:45:15;;;;;;;11.00;8.88;;;;;;;;;;4973378;28;20062;-71
2021/03/04 02:47:41;;;;;;;9.77;8.60;;;;;;;;;;5005050;28;20118;-71
2021/03/04 02:50:07;;;;;;;12.07;9.40;;;;;;;;;;5005326;28;20038;-71
2021/03/04 02:52:32;;;;;;;12.05;9.13;;;;;;;;;;4989135;28;20485;-71
2021/03/04 02:54:58;;;;;;;13.13;9.07;;;;;;;;;;4989302;28;20105;-71
2021/03/04 02:57:24;;;;;;;13.55;10.30;;;;;;;;;;4988647;28;20045;-71
2021/03/04 02:59:49;;;;;;;12.13;9.15;;;;;;;;;;4956573;28;20030;-71
2021/03/04 03:02:15;;;;;;;12.23;8.57;;;;;;;;;;4956545;28;20409;-71
2021/03/04 03:04:40;;;;;;;14.73;9.63;;;;;;;;;;4956432;28;20921;-71
2021/03/04 03:07:08;;;;;;;13.98;9.63;;;;;;;;;;4972628;28;20397;-71
2021/03/04 03:09:34;;;;;;;10.48;8.85;;;;;;;;;;4956634;28;20035;-71
2021/03/04 03:11:59;;;;;;;11.75;8.82;;;;;;;;;;4972853;28;20131;-71
2021/03/04 03:14:26;;;;;;;12.68;9.88;;;;;;;;;;4968116;28;20108;-71
2021/03/04 03:16:51;;;;;;;12.40;9.23;;;;;;;;;;4957860;28;20042;-71
2021/03/04 03:19:17;;;;;;;10.65;8.80;;;;;;;;;;4972459;28;20035;-71
2021/03/04 03:21:42;;;;;;;10.20;8.80;;;;;;;;;;4956511;28;20069;-71
2021/03/04 03:24:08;;;;;;;10.43;8.65;;;;;;;;;;4972114;28;20097;-71
2021/03/04 03:26:34;;;;;;;11.65;9.05;;;;;;;;;;4972600;28;20034;-71
2021/03/04 03:29:00;;;;;;;13.15;9.40;;;;;;;;;;4972126;28;20069;-71
2021/03/04 03:31:25;;;;;;;12.35;9.65;;;;;;;;;;4956054;28;20091;-71
2021/03/04 03:33:51;;;;;;;12.43;9.63;;;;;;;;;;4956568;28;20472;-71
2021/03/04 03:36:17;;;;;;;10.55;8.95;;;;;;;;;;4972332;28;20119;-71
2021/03/04 03:38:42;;;;;;;12.43;9.00;;;;;;;;;;4956428;28;20061;-71
2021/03/04 03:41:08;;;;;;;12.98;9.55;;;;;;;;;;4956195;28;20115;-71
2021/03/04 03:43:35;;;;;;;10.82;8.85;;;;;;;;;;4956006;28;20038;-71
2021/03/04 03:46:01;;;;;;;11.07;9.82;;;;;;;;;;4965055;28;20034;-73
2021/03/04 03:48:26;;;;;;;12.93;9.60;;;;;;;;;;4972036;28;20050;-75
2021/03/04 03:50:53;;;;;;;12.45;9.23;;;;;;;;;;4971901;28;20110;-76
2021/03/04 03:53:19;;;;;;;15.15;9.00;;;;;;;;;;4955956;28;20393;-76
2021/03/04 03:55:45;;;;;;;11.55;8.68;;;;;;;;;;4972114;28;20027;-77
2021/03/04 03:58:10;;;;;;;11.10;8.57;;;;;;;;;;4955455;28;20039;-77
2021/03/04 04:00:36;;;;;;;13.25;9.35;;;;;;;;;;4971230;28;20134;-77
2021/03/04 04:03:02;;;;;;;14.35;9.60;;;;;;;;;;4971923;28;20410;-77
2021/03/04 04:05:27;;;;;;;11.85;9.25;;;;;;;;;;4971834;28;20389;-77
2021/03/04 04:07:56;;;;;;;10.57;8.65;;;;;;;;;;4955275;28;20628;-76
2021/03/04 04:10:23;;;;;;;11.57;9.07;;;;;;;;;;4971302;28;20508;-76
2021/03/04 04:12:49;;;;;;;13.30;9.35;;;;;;;;;;4971733;28;20039;-76
2021/03/04 04:15:15;;;;;;;13.73;9.18;;;;;;;;;;5007796;28;20038;-76
2021/03/04 04:17:40;;;;;;;14.05;10.13;;;;;;;;;;4990786;28;20034;-76
2021/03/04 04:20:06;;;;;;;13.15;9.43;;;;;;;;;;4975120;28;20069;-76
2021/03/04 04:22:32;;;;;;;12.63;8.90;;;;;;;;;;4975021;28;20034;-75
2021/03/04 04:25:00;;;;;;;11.52;9.48;;;;;;;;;;4979293;28;20034;-75
2021/03/04 04:27:28;;;;;;;9.13;8.23;;;;;;;;;;4955092;28;20092;-75
2021/03/04 04:29:54;;;;;;;12.35;8.55;;;;;;;;;;4971374;28;20038;-75
2021/03/04 04:32:20;;;;;;;11.30;8.70;;;;;;;;;;4971693;28;20041;-75
2021/03/04 04:34:45;;;;;;;13.13;10.15;;;;;;;;;;4971624;28;20113;-75
2021/03/04 04:37:11;;;;;;;11.50;8.43;;;;;;;;;;4972980;28;20035;-76
2021/03/04 04:39:36;;;;;;;12.60;9.27;;;;;;;;;;4954978;28;20512;-76
2021/03/04 04:42:01;;;;;;;12.30;9.00;;;;;;;;;;4971267;28;20034;-76
2021/03/04 04:44:27;;;;;;;11.73;9.25;;;;;;;;;;4971380;28;20436;-76
2021/03/04 04:46:52;;;;;;;11.55;9.23;;;;;;;;;;4971184;28;20034;-76
2021/03/04 04:49:18;;;;;;;14.50;10.13;;;;;;;;;;4971296;28;20039;-76
2021/03/04 04:51:44;;;;;;;11.18;8.75;;;;;;;;;;4987817;28;20039;-76
2021/03/04 04:54:09;;;;;;;10.27;8.38;;;;;;;;;;4987204;28;20109;-76
2021/03/04 04:56:35;;;;;;;12.57;9.18;;;;;;;;;;4987643;28;20034;-77
2021/03/04 04:59:00;;;;;;;11.57;8.85;;;;;;;;;;4986687;28;20043;-77
2021/03/04 05:01:26;;;;;;;12.90;8.65;;;;;;;;;;4939508;28;20464;-77
2021/03/04 05:03:51;;;;;;;10.75;8.57;;;;;;;;;;4967416;28;20482;-77
2021/03/04 05:06:16;;;;;;;13.02;10.30;;;;;;;;;;5003535;28;20441;-76
2021/03/04 05:08:42;;;;;;;12.27;8.07;;;;;;;;;;4987799;28;20105;-77
2021/03/04 05:11:07;;;;;;;11.27;8.63;;;;;;;;;;4987173;28;20396;-77
2021/03/04 05:13:33;;;;;;;12.27;7.72;;;;;;;;;;4992292;28;20026;-77
2021/03/04 05:15:58;;;;;;;11.98;8.82;;;;;;;;;;4974099;28;20038;-77
2021/03/04 05:18:24;;;;;;;11.13;9.13;;;;;;;;;;4976100;28;20042;-76
2021/03/04 05:20:50;;;;;;;11.05;7.55;;;;;;;;;;4978211;28;20061;-76
2021/03/04 05:23:15;;;;;;;8.23;7.38;;;;;;;;;;4975463;28;20181;-75
2021/03/04 05:25:41;;;;;;;10.40;8.35;;;;;;;;;;4974466;28;20382;-75
2021/03/04 05:28:06;;;;;;;11.98;8.20;;;;;;;;;;4974539;28;20113;-75
2021/03/04 05:30:32;;;;;;;9.88;8.18;;;;;;;;;;4974517;28;20035;-74
2021/03/04 05:32:57;;;;;;;9.18;8.15;;;;;;;;;;4974126;28;20070;-74
2021/03/04 05:35:23;;;;;;;9.77;7.88;;;;;;;;;;4958538;28;20396;-75
2021/03/04 05:37:48;;;;;;;9.07;7.47;;;;;;;;;;4958007;28;20039;-75
2021/03/04 05:40:14;;;;;;;11.63;7.60;;;;;;;;;;4958255;28;20662;-75
2021/03/04 05:42:41;;;;;;;9.73;7.35;;;;;;;;;;4974270;28;20035;-75
2021/03/04 05:45:07;;;;;;;10.25;7.82;;;;;;;;;;4974281;28;20035;-74
2021/03/04 05:47:33;;;;;;;8.82;7.72;;;;;;;;;;4958365;28;20393;-74
2021/03/04 05:50:06;;;;;;;10.60;7.43;;;;;;;;;;4974182;28;20031;-73
2021/03/04 05:52:35;;;;;;;9.68;6.80;;;;;;;;;;4985669;28;20563;-73
2021/03/04 05:55:02;;;;;;;6.93;6.20;;;;;;;;;;4973376;28;20399;-72
2021/03/04 05:57:27;;;;;;;8.10;7.15;;;;;;;;;;4970141;28;20042;-72
2021/03/04 05:59:53;;;;;;;10.82;6.90;;;;;;;;;;5004030;28;20358;-72
2021/03/04 06:02:20;;;;;;;8.98;7.07;;;;;;;;;;4972742;28;20070;-72
2021/03/04 06:04:45;;;;;;;8.88;6.78;;;;;;;;;;4974390;28;20031;-72
2021/03/04 06:07:11;;;;;;;9.88;6.93;;;;;;;;;;4974992;28;20061;-71
2021/03/04 06:09:37;;;;;;;11.40;6.95;;;;;;;;;;4957389;28;20397;-72
2021/03/04 06:12:03;;;;;;;10.68;6.80;;;;;;;;;;4973724;28;20038;-72
2021/03/04 06:14:30;;;;;;;9.30;6.57;;;;;;;;;;4985710;28;20034;-72
2021/03/04 06:16:55;;;;;;;8.98;6.72;;;;;;;;;;4976881;28;20042;-72
2021/03/04 06:19:21;;;;;;;11.10;6.95;;;;;;;;;;4977004;28;20392;-75
2021/03/04 06:21:57;;;;;;;9.15;5.93;;;;;;;;;;4963285;28;20046;-72
2021/03/04 06:24:22;;;;;;;10.50;7.20;;;;;;;;;;4957242;28;20026;-72
2021/03/04 06:26:55;;;;;;;11.30;7.40;;;;;;;;;;4973342;28;20042;-72
2021/03/04 06:29:21;;;;;;;9.45;6.93;;;;;;;;;;4957093;28;20069;-72
2021/03/04 06:32:05;;;;;;;11.82;6.55;;;;;;;;;;4972894;28;20416;-72
2021/03/04 06:34:31;;;;;;;9.43;6.25;;;;;;;;;;5005957;28;20447;-72
2021/03/04 06:37:03;;;;;;;8.88;6.25;;;;;;;;;;4989316;28;20041;-72
2021/03/04 06:39:54;;;;;;;10.70;6.70;;;;;;;;;;5005229;28;20077;-72
2021/03/04 06:42:20;;;;;;;11.23;6.03;;;;;;;;;;5005685;28;20054;-72
2021/03/04 06:44:46;;;;;;;9.13;6.53;;;;;;;;;;4957045;28;20118;-72
2021/03/04 06:47:19;;;;;;;10.88;6.60;;;;;;;;;;4975675;28;20028;-72
2021/03/04 06:49:45;;;;;;;12.10;6.47;;;;;;;;;;4993627;28;20511;-72
2021/03/04 06:52:10;;;;;;;10.68;6.63;;;;;;;;;;4991813;28;20054;-72
2021/03/04 06:54:35;;;;;;;12.07;6.28;;;;;;;;;;4992050;28;20030;-72
2021/03/04 06:57:11;;;;;;;17.67;6.40;;;;;;;;;;4992366;28;20049;-72
2021/03/04 06:59:43;;;;;;;9.32;6.43;;;;;;;;;;4982210;28;20034;-72
2021/03/04 07:02:09;;;;;;;10.65;6.28;;;;;;;;;;4972418;28;20485;-71
2021/03/04 07:04:34;;;;;;;13.30;6.60;;;;;;;;;;4974258;28;20038;-72
2021/03/04 07:07:00;;;;;;;14.60;6.82;;;;;;;;;;4957061;28;20055;-72
2021/03/04 07:09:26;;;;;;;12.13;6.82;;;;;;;;;;4972909;28;20045;-72
2021/03/04 07:11:51;;;;;;;16.40;7.53;;;;;;;;;;4956281;28;20165;-71
2021/03/04 07:14:16;;;;;;;16.17;6.80;;;;;;;;;;4983021;28;20358;-71
2021/03/04 07:16:45;;;;;;;14.85;6.28;;;;;;;;;;4975865;28;20041;-71
2021/03/04 07:19:12;;;;;;;16.75;6.60;;;;;;;;;;4973552;28;20114;-71
2021/03/04 07:21:40;;;;;;;19.75;6.65;;;;;;;;;;5003646;28;20046;-71
2021/03/04 07:24:05;;;;;;;22.17;7.05;;;;;;;;;;4999396;28;20078;-71
2021/03/04 07:26:31;;;;;;;15.43;6.38;;;;;;;;;;4953368;28;20032;-71
2021/03/04 07:28:57;;;;;;;12.98;6.03;;;;;;;;;;4970590;28;20111;-71
2021/03/04 07:31:22;;;;;;;17.50;6.05;;;;;;;;;;5002676;28;20045;-71
2021/03/04 07:33:48;;;;;;;14.70;6.50;;;;;;;;;;4986353;28;20485;-71
2021/03/04 07:36:14;;;;;;;11.40;5.35;;;;;;;;;;4972749;28;20066;-71
2021/03/04 07:38:40;;;;;;;12.85;5.07;;;;;;;;;;4954123;28;20106;-71
2021/03/04 07:41:05;;;;;;;12.13;6.72;;;;;;;;;;4968192;28;20094;-71
2021/03/04 07:43:54;;;;;;;9.93;5.28;;;;;;;;;;4953945;28;20111;-71
2021/03/04 07:46:39;;;;;;;14.52;6.53;;;;;;;;;;4983291;28;20553;-71
2021/03/04 07:49:06;;;;;;;12.13;5.47;;;;;;;;;;4970145;28;20050;-73
2021/03/04 07:51:52;;;;;;;11.82;6.40;;;;;;;;;;4971779;28;20058;-74
2021/03/04 07:54:27;;;;;;;7.65;5.15;;;;;;;;;;4971363;28;20050;-74
2021/03/04 07:57:05;;;;;;;7.60;4.60;;;;;;;;;;4955839;28;20066;-74
2021/03/04 07:59:31;;;;;;;8.95;4.88;;;;;;;;;;4971777;28;20038;-75
2021/03/04 08:01:57;;;;;;;11.13;4.88;;;;;;;;;;4955834;28;20112;-74
2021/03/04 08:04:23;;;;;;;8.38;4.63;;;;;;;;;;4970729;28;20363;-75
2021/03/04 08:06:55;;;;;;;8.52;5.07;;;;;;;;;;4992330;28;20089;-75
2021/03/04 08:09:25;;;;;;;12.27;4.60;;;;;;;;;;4987763;28;20090;-74
2021/03/04 08:11:51;;;;;;;10.52;5.13;;;;;;;;;;5004182;28;20043;-74
2021/03/04 08:14:17;;;;;;;8.60;5.22;;;;;;;;;;4974940;28;20038;-74
2021/03/04 08:16:42;;;;;;;7.65;5.45;;;;;;;;;;4974805;28;20040;-74
2021/03/04 08:19:08;;;;;;;9.38;4.97;;;;;;;;;;4974413;28;20041;-74
2021/03/04 08:21:39;;;;;;;9.40;5.05;;;;;;;;;;4971510;28;20070;-74
2021/03/04 08:24:05;;;;;;;8.00;5.35;;;;;;;;;;4986246;28;20023;-74
2021/03/04 08:26:36;;;;;;;8.35;4.88;;;;;;;;;;4970882;28;20471;-74
2021/03/04 08:29:05;;;;;;;9.93;5.45;;;;;;;;;;4955959;28;20043;-74
2021/03/04 08:31:34;;;;;;;7.32;4.88;;;;;;;;;;4971439;28;20043;-74
2021/03/04 08:33:59;;;;;;;9.95;4.57;;;;;;;;;;4971704;28;20031;-75
2021/03/04 08:36:25;;;;;;;9.45;4.95;;;;;;;;;;4968324;28;20820;-75
2021/03/04 08:38:51;;;;;;;6.10;4.35;;;;;;;;;;4936311;28;20035;-75
2021/03/04 08:41:21;;;;;;;7.47;4.75;;;;;;;;;;4941306;28;20043;-74
2021/03/04 08:43:47;;;;;;;8.52;4.97;;;;;;;;;;4971283;28;20039;-74
2021/03/04 08:46:12;;;;;;;7.85;4.95;;;;;;;;;;4971045;28;20086;-75
2021/03/04 08:48:47;;;;;;;8.45;4.65;;;;;;;;;;4987346;28;20039;-74
2021/03/04 08:51:12;;;;;;;8.13;5.15;;;;;;;;;;4987535;28;20077;-74
2021/03/04 08:53:38;;;;;;;6.32;3.92;;;;;;;;;;4991235;28;20019;-74
2021/03/04 08:56:05;;;;;;;9.52;5.30;;;;;;;;;;5007073;28;20106;-74
2021/03/04 08:58:31;;;;;;;7.32;4.40;;;;;;;;;;4958991;28;20031;-74
2021/03/04 09:01:00;;;;;;;6.95;4.45;;;;;;;;;;4990976;28;20038;-74
2021/03/04 09:03:27;;;;;;;8.02;4.45;;;;;;;;;;4990733;28;20090;-74
2021/03/04 09:06:09;;;;;;;5.93;4.22;;;;;;;;;;4991315;28;20033;-74
2021/03/04 09:08:45;;;;;;;4.95;3.72;;;;;;;;;;4990935;28;20035;-74
2021/03/04 09:11:39;;;;;;;6.72;3.95;;;;;;;;;;4975910;28;20078;-74
2021/03/04 09:14:06;;;;;;;5.70;3.83;;;;;;;;;;4974970;28;20477;-74
2021/03/04 09:16:43;;;;;;;6.75;4.28;;;;;;;;;;4975187;28;20038;-74
2021/03/04 09:19:25;;;;;;;5.93;4.10;;;;;;;;;;4959535;28;20035;-74
2021/03/04 09:21:50;;;;;;;6.10;3.65;;;;;;;;;;4975009;28;20050;-74
2021/03/04 09:24:16;;;;;;;6.55;3.85;;;;;;;;;;4958105;28;20034;-74
2021/03/04 09:26:41;;;;;;;6.68;4.03;;;;;;;;;;4958583;28;20493;-74
2021/03/04 09:29:07;;;;;;;6.38;4.00;;;;;;;;;;4957961;28;20046;-74
2021/03/04 09:31:32;;;;;;;9.20;4.78;;;;;;;;;;4957949;28;20147;-74
2021/03/04 09:33:59;;;;;;;5.80;4.47;;;;;;;;;;4958645;28;20436;-75
2021/03/04 09:36:24;;;;;;;7.15;4.90;;;;;;;;;;4958332;28;20041;-74
2021/03/04 09:38:51;;;;;;;8.35;4.90;;;;;;;;;;4958281;28;20031;-74
2021/03/04 09:41:17;;;;;;;7.40;5.18;;;;;;;;;;4954943;28;20274;-74
2021/03/04 09:43:46;;;;;;;6.88;4.72;;;;;;;;;;4968812;28;20393;-74
2021/03/04 09:46:32;;;;;;;6.50;4.35;;;;;;;;;;4973080;28;20039;-74
2021/03/04 09:49:15;;;;;;;7.50;4.53;;;;;;;;;;4974417;28;20045;-75
2021/03/04 09:51:42;;;;;;;9.27;4.72;;;;;;;;;;4974704;28;20534;-74
2021/03/04 09:54:08;;;;;;;6.47;4.75;;;;;;;;;;4973973;28;20034;-74
2021/03/04 09:56:33;;;;;;;5.57;4.57;;;;;;;;;;4973656;28;20101;-74
2021/03/04 09:58:59;;;;;;;6.32;3.92;;;;;;;;;;4957712;28;20051;-74
2021/03/04 10:01:32;;;;;;;8.52;3.97;;;;;;;;;;4989691;28;20170;-74
2021/03/04 10:04:01;;;;;;;6.43;4.30;;;;;;;;;;4988503;28;20039;-74
2021/03/04 10:06:27;;;;;;;7.15;3.80;;;;;;;;;;5006285;28;20543;-74
2021/03/04 10:08:53;;;;;;;5.32;3.78;;;;;;;;;;4989921;28;20062;-74
2021/03/04 10:11:23;;;;;;;6.55;3.55;;;;;;;;;;4989729;28;20081;-74
2021/03/04 10:13:48;;;;;;;5.82;3.78;;;;;;;;;;4996297;28;20488;-74
2021/03/04 10:16:14;;;;;;;7.40;4.10;;;;;;;;;;4965261;28;20041;-74
2021/03/04 10:18:49;;;;;;;7.53;4.10;;;;;;;;;;4957793;28;20038;-74
2021/03/04 10:21:15;;;;;;;6.18;3.70;;;;;;;;;;4957751;28;20035;-75
2021/03/04 10:23:41;;;;;;;7.43;4.32;;;;;;;;;;4957406;28;20062;-75
2021/03/04 10:26:06;;;;;;;8.07;4.55;;;;;;;;;;4957538;28;20034;-76
2021/03/04 10:28:32;;;;;;;7.25;5.05;;;;;;;;;;4956382;28;20131;-75
2021/03/04 10:30:57;;;;;;;8.68;4.85;;;;;;;;;;4957058;28;20034;-76
2021/03/04 10:33:23;;;;;;;8.77;5.95;;;;;;;;;;4973831;28;20093;-76
2021/03/04 10:35:48;;;;;;;6.43;5.10;;;;;;;;;;4957682;28;20030;-75
2021/03/04 10:38:13;;;;;;;9.05;5.25;;;;;;;;;;4957111;28;20046;-76
2021/03/04 10:40:39;;;;;;;8.10;5.28;;;;;;;;;;4956992;28;20039;-76
2021/03/04 10:43:05;;;;;;;6.70;5.50;;;;;;;;;;4956730;28;20057;-75
2021/03/04 10:45:30;;;;;;;6.57;5.03;;;;;;;;;;4972869;28;20053;-75
2021/03/04 10:47:56;;;;;;;7.90;5.32;;;;;;;;;;4989306;28;20034;-75
2021/03/04 10:50:22;;;;;;;9.07;5.97;;;;;;;;;;4988832;28;20416;-75
2021/03/04 10:52:47;;;;;;;8.35;5.53;;;;;;;;;;4956470;28;20050;-75
2021/03/04 10:55:15;;;;;;;7.05;5.70;;;;;;;;;;4972667;28;20034;-75
2021/03/04 10:57:40;;;;;;;7.90;5.40;;;;;;;;;;4973767;28;20034;-75
2021/03/04 11:00:07;;;;;;;7.82;5.22;;;;;;;;;;4952991;28;20038;-75
2021/03/04 11:02:32;;;;;;;9.35;5.93;;;;;;;;;;4969834;28;20036;-75
2021/03/04 11:04:58;;;;;;;9.57;5.10;;;;;;;;;;4969637;28;20034;-75
2021/03/04 11:07:23;;;;;;;9.00;5.20;;;;;;;;;;4969376;28;20039;-76
2021/03/04 11:09:52;;;;;;;7.35;4.85;;;;;;;;;;4969441;28;20086;-75
2021/03/04 11:12:19;;;;;;;7.78;5.15;;;;;;;;;;4969574;28;20039;-75
2021/03/04 11:14:44;;;;;;;10.02;5.05;;;;;;;;;;4960315;28;20035;-75
2021/03/04 11:17:09;;;;;;;7.25;4.53;;;;;;;;;;4956123;28;20043;-75
2021/03/04 11:19:35;;;;;;;7.18;4.35;;;;;;;;;;4956737;28;20112;-75
2021/03/04 11:22:00;;;;;;;7.18;5.55;;;;;;;;;;4955766;28;20055;-75
2021/03/04 11:24:26;;;;;;;9.40;5.47;;;;;;;;;;4956184;28;20033;-75
2021/03/04 11:26:52;;;;;;;7.07;4.80;;;;;;;;;;4972616;28;20105;-75
2021/03/04 11:29:17;;;;;;;7.72;4.88;;;;;;;;;;4956084;28;20035;-75
2021/03/04 11:31:43;;;;;;;8.63;4.50;;;;;;;;;;4955939;28;20093;-75
2021/03/04 11:34:08;;;;;;;6.15;4.28;;;;;;;;;;4956100;28;20088;-75
2021/03/04 11:36:34;;;;;;;6.43;4.53;;;;;;;;;;4956436;28;20405;-75
2021/03/04 11:38:59;;;;;;;6.13;3.90;;;;;;;;;;4971941;28;20092;-75
2021/03/04 11:41:25;;;;;;;5.57;3.92;;;;;;;;;;4972434;28;20062;-75
2021/03/04 11:43:51;;;;;;;7.78;3.90;;;;;;;;;;4972148;28;20449;-75
2021/03/04 11:46:18;;;;;;;5.30;3.35;;;;;;;;;;4971693;28;20502;-75
2021/03/04 11:48:44;;;;;;;6.05;4.43;;;;;;;;;;4988306;28;20031;-75
2021/03/04 11:51:09;;;;;;;7.07;3.80;;;;;;;;;;4987756;28;20038;-75
2021/03/04 11:53:35;;;;;;;5.93;3.65;;;;;;;;;;4956004;28;20037;-75
2021/03/04 11:56:00;;;;;;;36.28;16.25;;;;;;;;;;4955616;28;20508;-75
2021/03/04 11:58:26;;;;;;;184.57;77.10;;;;;;;;;;4965627;28;20031;-75
2021/03/04 12:00:53;;;;;;;182.30;71.63;;;;;;;;;;4984717;28;20038;-75
2021/03/04 12:03:18;;;;;;;124.25;48.10;;;;;;;;;;4985020;28;20456;-75
2021/03/04 12:05:44;;;;;;;91.05;36.60;;;;;;;;;;4968687;28;20043;-75
2021/03/04 12:08:09;;;;;;;81.68;33.97;;;;;;;;;;4970539;28;20039;-76
2021/03/04 12:10:35;;;;;;;72.47;27.60;;;;;;;;;;4971695;28;20043;-76
2021/03/04 12:13:00;;;;;;;65.35;26.05;;;;;;;;;;4972041;28;20479;-75
2021/03/04 12:15:26;;;;;;;60.67;26.98;;;;;;;;;;4991898;28;20366;-76
2021/03/04 12:17:51;;;;;;;59.92;25.05;;;;;;;;;;4991044;28;20040;-76
2021/03/04 12:20:19;;;;;;;56.05;21.00;;;;;;;;;;4980282;28;20050;-76
2021/03/04 12:22:45;;;;;;;54.38;21.85;;;;;;;;;;4955377;28;20114;-76
2021/03/04 12:25:10;;;;;;;44.50;19.42;;;;;;;;;;4971196;28;20046;-76
2021/03/04 12:27:36;;;;;;;49.72;20.33;;;;;;;;;;4958393;28;20038;-76
2021/03/04 12:30:01;;;;;;;41.40;18.45;;;;;;;;;;4977438;28;20117;-76
2021/03/04 12:32:27;;;;;;;37.85;17.42;;;;;;;;;;4962032;28;20129;-76
2021/03/04 12:34:52;;;;;;;37.03;16.75;;;;;;;;;;4961863;28;20500;-76
2021/03/04 12:37:18;;;;;;;34.03;15.15;;;;;;;;;;4978045;28;20041;-76
2021/03/04 12:39:43;;;;;;;33.90;13.60;;;;;;;;;;4977032;28;20714;-76
2021/03/04 12:42:09;;;;;;;28.27;13.75;;;;;;;;;;4955945;28;20688;-76
2021/03/04 12:44:34;;;;;;;30.77;14.40;;;;;;;;;;4972395;28;20114;-76
2021/03/04 12:47:00;;;;;;;23.45;11.88;;;;;;;;;;4977223;28;20456;-76
2021/03/04 12:49:25;;;;;;;25.58;11.20;;;;;;;;;;4980958;28;20034;-76
2021/03/04 12:51:51;;;;;;;30.30;11.25;;;;;;;;;;4997291;28;20038;-76
2021/03/04 12:54:16;;;;;;;25.40;11.02;;;;;;;;;;4996708;28;20038;-76
2021/03/04 12:56:42;;;;;;;24.98;10.88;;;;;;;;;;4977586;28;20043;-76
2021/03/04 12:59:07;;;;;;;20.40;10.70;;;;;;;;;;4978539;28;20120;-76
2021/03/04 13:01:33;;;;;;;22.17;9.95;;;;;;;;;;4977859;28;20039;-76
2021/03/04 13:03:59;;;;;;;22.08;9.38;;;;;;;;;;4961616;28;20042;-75
2021/03/04 13:06:24;;;;;;;20.00;8.90;;;;;;;;;;4962158;28;20034;-76
2021/03/04 13:08:50;;;;;;;15.82;7.82;;;;;;;;;;4977496;28;20400;-76
2021/03/04 13:11:16;;;;;;;17.88;8.93;;;;;;;;;;4977546;28;20038;-76
2021/03/04 13:13:43;;;;;;;14.40;7.20;;;;;;;;;;4979516;28;20042;-76
2021/03/04 13:16:08;;;;;;;12.90;6.90;;;;;;;;;;4977674;28;20038;-76
2021/03/04 13:18:33;;;;;;;13.38;6.38;;;;;;;;;;4961672;28;20038;-76
2021/03/04 13:20:59;;;;;;;14.82;6.72;;;;;;;;;;4958652;29;20397;-76
2021/03/04 13:23:24;;;;;;;15.77;6.82;;;;;;;;;;4973949;28;20057;-77
2021/03/04 13:25:50;;;;;;;14.73;6.28;;;;;;;;;;4993599;28;20061;-77
2021/03/04 13:28:15;;;;;;;13.40;5.78;;;;;;;;;;4960479;28;20492;-78
2021/03/04 13:30:40;;;;;;;14.02;6.10;;;;;;;;;;4961024;28;20617;-77
2021/03/04 13:33:07;;;;;;;13.85;5.63;;;;;;;;;;4961566;28;20448;-78
2021/03/04 13:35:32;;;;;;;14.23;5.72;;;;;;;;;;4962012;28;20038;-78
2021/03/04 13:37:59;;;;;;;14.52;6.22;;;;;;;;;;4959651;28;20031;-78
2021/03/04 13:40:26;;;;;;;10.80;5.05;;;;;;;;;;4958126;28;20038;-79
2021/03/04 13:42:52;;;;;;;15.98;5.93;;;;;;;;;;4955013;28;20370;-78
2021/03/04 13:45:17;;;;;;;11.38;5.25;;;;;;;;;;4971084;28;20059;-78
2021/03/04 13:47:43;;;;;;;8.93;4.47;;;;;;;;;;4987174;28;20050;-78
2021/03/04 13:50:09;;;;;;;9.48;4.32;;;;;;;;;;4987141;28;20118;-77
2021/03/04 13:52:34;;;;;;;9.57;4.45;;;;;;;;;;4986675;28;20027;-78
2021/03/04 13:54:59;;;;;;;9.77;4.05;;;;;;;;;;4987487;28;20030;-77
2021/03/04 13:57:25;;;;;;;10.40;4.47;;;;;;;;;;4987121;28;20046;-77
2021/03/04 13:59:50;;;;;;;10.20;4.65;;;;;;;;;;4987256;28;20047;-78
2021/03/04 14:02:16;;;;;;;7.70;4.10;;;;;;;;;;4956059;28;20043;-79
2021/03/04 14:04:42;;;;;;;8.82;3.60;;;;;;;;;;4970862;28;20038;-78
2021/03/04 14:07:07;;;;;;;12.77;4.50;;;;;;;;;;4970683;28;20035;-79
2021/03/04 14:09:33;;;;;;;7.47;3.28;;;;;;;;;;4970647;28;20106;-78
2021/03/04 14:11:58;;;;;;;9.00;3.75;;;;;;;;;;4970719;28;20031;-78
2021/03/04 14:14:23;;;;;;;8.27;3.47;;;;;;;;;;4977222;28;20038;-78
2021/03/04 14:16:49;;;;;;;6.47;2.97;;;;;;;;;;4976945;28;20030;-78
2021/03/04 14:19:14;;;;;;;7.55;3.38;;;;;;;;;;4976941;28;20112;-78
2021/03/04 14:21:40;;;;;;;8.27;3.47;;;;;;;;;;4976626;28;20520;-78
2021/03/04 14:24:05;;;;;;;6.50;3.65;;;;;;;;;;4971952;28;20204;-79
2021/03/04 14:26:31;;;;;;;7.75;3.67;;;;;;;;;;4973891;28;20031;-79
2021/03/04 14:28:56;;;;;;;7.95;3.67;;;;;;;;;;4956651;28;20438;-78
2021/03/04 14:31:21;;;;;;;9.10;3.17;;;;;;;;;;4957603;28;20034;-79